createdAt,value
2017-12-14T00:00:45.627Z,56.80
2017-12-14T00:03:13.230Z,56.80
2017-12-14T00:05:41.128Z,56.90
2017-12-14T00:08:10.104Z,57.10
2017-12-14T00:10:37.660Z,57.10
2017-12-14T00:13:05.160Z,57.20
2017-12-14T00:15:32.660Z,57.30
2017-12-14T00:18:00.187Z,57.40
2017-12-14T00:20:27.712Z,57.30
2017-12-14T00:22:56.007Z,57.40
2017-12-14T00:25:25.007Z,57.50
2017-12-14T00:27:52.499Z,57.40
2017-12-14T00:30:20.009Z,57.50
2017-12-14T00:32:48.317Z,57.50
2017-12-14T00:35:16.531Z,57.50
2017-12-14T00:37:44.030Z,57.50
2017-12-14T00:40:11.900Z,57.70
2017-12-14T00:42:39.477Z,57.50
2017-12-14T00:45:08.135Z,57.50
2017-12-14T00:47:36.150Z,57.50
2017-12-14T00:50:03.831Z,57.60
2017-12-14T00:52:31.790Z,57.60
2017-12-14T00:54:59.369Z,57.60
2017-12-14T00:57:28.625Z,57.60
2017-12-14T00:59:56.196Z,57.50
2017-12-14T01:02:23.771Z,57.60
2017-12-14T01:04:53.594Z,57.60
2017-12-14T01:07:21.144Z,57.60
2017-12-14T01:09:49.506Z,57.70
2017-12-14T01:12:17.104Z,57.70
2017-12-14T01:14:44.686Z,57.80
2017-12-14T01:17:12.458Z,57.90
2017-12-14T01:19:39.981Z,57.90
2017-12-14T01:22:07.577Z,57.90
2017-12-14T01:24:36.023Z,57.90
2017-12-14T01:27:03.694Z,57.90
2017-12-14T01:29:31.840Z,58.00
2017-12-14T01:31:59.546Z,58.00
2017-12-14T01:34:27.067Z,58.10
2017-12-14T01:36:54.602Z,58.10
2017-12-14T01:39:22.839Z,58.30
2017-12-14T01:41:51.146Z,58.50
2017-12-14T01:44:18.656Z,58.50
2017-12-14T01:46:47.017Z,58.60
2017-12-14T01:49:14.573Z,58.60
2017-12-14T01:51:44.064Z,58.70
2017-12-14T01:54:11.628Z,58.60
2017-12-14T01:56:39.257Z,58.70
2017-12-14T01:59:06.828Z,58.60
2017-12-14T02:01:34.355Z,58.80
2017-12-14T02:04:03.431Z,58.90
2017-12-14T02:06:31.171Z,58.90
2017-12-14T02:08:59.212Z,58.80
2017-12-14T02:11:28.820Z,58.80
2017-12-14T02:13:56.401Z,58.60
2017-12-14T02:16:23.983Z,58.70
2017-12-14T02:18:51.560Z,58.80
2017-12-14T02:21:19.136Z,58.80
2017-12-14T02:23:46.737Z,58.90
2017-12-14T02:26:15.327Z,58.80
2017-12-14T02:28:42.889Z,58.90
2017-12-14T02:31:12.085Z,58.80
2017-12-14T02:33:40.157Z,58.90
2017-12-14T02:36:07.682Z,58.90
2017-12-14T02:38:35.838Z,58.80
2017-12-14T02:41:03.389Z,58.80
2017-12-14T02:43:31.985Z,58.60
2017-12-14T02:46:00.345Z,58.60
2017-12-14T02:48:27.907Z,58.60
2017-12-14T02:50:56.263Z,58.60
2017-12-14T02:53:23.820Z,58.60
2017-12-14T02:55:51.414Z,58.50
2017-12-14T02:58:18.944Z,58.60
2017-12-14T03:00:46.513Z,58.60
2017-12-14T03:03:14.230Z,58.60
2017-12-14T03:05:42.429Z,58.60
2017-12-14T03:08:09.997Z,58.50
2017-12-14T03:10:37.553Z,58.80
2017-12-14T03:13:05.092Z,58.80
2017-12-14T03:15:32.693Z,58.80
2017-12-14T03:18:00.235Z,58.80
2017-12-14T03:20:27.843Z,58.80
2017-12-14T03:22:56.136Z,58.60
2017-12-14T03:25:23.661Z,58.60
2017-12-14T03:27:51.213Z,58.60
2017-12-14T03:30:19.709Z,58.60
2017-12-14T03:32:48.042Z,58.70
2017-12-14T03:35:15.563Z,58.60
2017-12-14T03:37:43.106Z,58.60
2017-12-14T03:40:12.627Z,58.50
2017-12-14T03:42:40.144Z,58.50
2017-12-14T03:45:09.203Z,58.40
2017-12-14T03:47:36.812Z,58.40
2017-12-14T03:50:05.830Z,58.30
2017-12-14T03:52:34.303Z,58.30
2017-12-14T03:55:01.851Z,58.20
2017-12-14T03:57:29.454Z,58.20
2017-12-14T03:59:57.018Z,57.80
2017-12-14T04:02:24.547Z,57.90
2017-12-14T04:04:52.842Z,58.00
2017-12-14T04:07:20.456Z,58.00
2017-12-14T04:09:48.030Z,58.00
2017-12-14T04:12:15.595Z,57.90
2017-12-14T04:14:43.988Z,58.00
2017-12-14T04:17:11.538Z,58.00
2017-12-14T04:19:39.909Z,57.60
2017-12-14T04:22:07.539Z,57.60
2017-12-14T04:24:35.200Z,57.70
2017-12-14T04:27:02.757Z,57.80
2017-12-14T04:29:30.939Z,57.50
2017-12-14T04:31:58.525Z,57.60
2017-12-14T04:34:26.188Z,57.50
2017-12-14T04:36:53.780Z,57.60
2017-12-14T04:39:21.359Z,57.50
2017-12-14T04:41:50.547Z,57.50
2017-12-14T04:44:18.137Z,57.50
2017-12-14T04:46:45.878Z,57.30
2017-12-14T04:49:13.438Z,57.20
2017-12-14T04:51:41.620Z,57.20
2017-12-14T04:54:09.180Z,57.30
2017-12-14T04:56:37.252Z,57.20
2017-12-14T04:59:04.941Z,57.20
2017-12-14T05:01:32.575Z,57.20
2017-12-14T05:04:00.165Z,56.90
2017-12-14T05:06:27.789Z,57.30
2017-12-14T05:08:55.368Z,57.90
2017-12-14T05:11:22.947Z,57.30
2017-12-14T05:13:50.523Z,57.30
2017-12-14T05:16:18.112Z,57.50
2017-12-14T05:18:45.816Z,57.40
2017-12-14T05:21:17.275Z,57.50
2017-12-14T05:23:44.901Z,57.40
2017-12-14T05:26:12.504Z,57.60
2017-12-14T05:28:41.779Z,57.60
2017-12-14T05:31:09.709Z,57.50
2017-12-14T05:33:37.290Z,57.70
2017-12-14T05:36:06.000Z,57.60
2017-12-14T05:38:33.629Z,57.60
2017-12-14T05:41:01.290Z,57.50
2017-12-14T05:43:28.966Z,57.50
2017-12-14T05:45:56.557Z,57.50
2017-12-14T05:48:24.210Z,57.40
2017-12-14T05:50:51.895Z,57.20
2017-12-14T05:53:19.485Z,57.30
2017-12-14T05:55:47.086Z,57.30
2017-12-14T05:58:14.696Z,57.20
2017-12-14T06:00:42.308Z,57.30
2017-12-14T06:03:09.975Z,57.20
2017-12-14T06:05:37.557Z,57.20
2017-12-14T06:08:05.926Z,57.20
2017-12-14T06:10:33.792Z,57.30
2017-12-14T06:13:01.364Z,57.20
2017-12-14T06:15:29.110Z,57.20
2017-12-14T06:17:56.857Z,57.30
2017-12-14T06:20:24.476Z,57.40
2017-12-14T06:22:52.836Z,57.40
2017-12-14T06:25:20.373Z,57.30
2017-12-14T06:27:49.089Z,57.30
2017-12-14T06:30:16.702Z,57.30
2017-12-14T06:32:44.335Z,57.30
2017-12-14T06:35:12.765Z,57.30
2017-12-14T06:37:40.399Z,57.30
2017-12-14T06:40:11.034Z,57.30
2017-12-14T06:42:38.592Z,57.30
2017-12-14T06:45:06.974Z,57.80
2017-12-14T06:47:34.568Z,57.70
2017-12-14T06:50:02.180Z,57.70
2017-12-14T06:52:29.753Z,57.70
2017-12-14T06:54:57.634Z,57.70
2017-12-14T06:57:25.218Z,57.70
2017-12-14T06:59:52.825Z,57.60
2017-12-14T07:02:20.437Z,57.60
2017-12-14T07:04:48.018Z,58.10
2017-12-14T07:07:16.387Z,58.10
2017-12-14T07:09:43.992Z,57.50
2017-12-14T07:12:11.810Z,57.50
2017-12-14T07:14:39.453Z,57.50
2017-12-14T07:17:07.040Z,57.50
2017-12-14T07:19:34.678Z,57.50
2017-12-14T07:22:02.523Z,57.40
2017-12-14T07:24:30.102Z,57.50
2017-12-14T07:26:57.675Z,58.20
2017-12-14T07:29:25.323Z,57.60
2017-12-14T07:31:52.881Z,57.90
2017-12-14T07:34:20.549Z,57.90
2017-12-14T07:36:52.007Z,58.00
2017-12-14T07:39:19.666Z,58.10
2017-12-14T07:41:47.308Z,58.50
2017-12-14T07:44:26.706Z,58.80
2017-12-14T07:47:06.135Z,58.90
2017-12-14T07:49:34.553Z,58.90
2017-12-14T07:52:02.164Z,58.90
2017-12-14T07:54:29.770Z,58.90
2017-12-14T07:56:57.360Z,59.00
2017-12-14T07:59:24.968Z,59.00
2017-12-14T08:01:52.562Z,59.00
2017-12-14T08:04:20.189Z,58.90
2017-12-14T08:06:48.580Z,58.60
2017-12-14T08:09:16.180Z,58.60
2017-12-14T08:11:43.802Z,58.10
2017-12-14T08:14:11.413Z,57.90
2017-12-14T08:16:39.054Z,57.90
2017-12-14T08:19:06.755Z,57.80
2017-12-14T08:21:34.315Z,58.20
2017-12-14T08:24:02.468Z,58.20
2017-12-14T08:26:30.040Z,58.40
2017-12-14T08:28:59.116Z,58.10
2017-12-14T08:31:26.735Z,58.10
2017-12-14T08:33:54.370Z,58.50
2017-12-14T08:36:22.771Z,58.20
2017-12-14T08:38:51.152Z,56.80
2017-12-14T08:41:18.747Z,56.80
2017-12-14T08:43:46.353Z,56.70
2017-12-14T08:46:14.046Z,56.50
2017-12-14T08:48:41.617Z,56.40
2017-12-14T08:51:09.243Z,56.20
2017-12-14T08:53:36.817Z,56.10
2017-12-14T08:56:04.415Z,56.10
2017-12-14T08:58:32.662Z,55.90
2017-12-14T09:01:00.247Z,56.10
2017-12-14T09:03:27.828Z,56.00
2017-12-14T09:05:55.431Z,56.20
2017-12-14T09:08:22.989Z,56.20
2017-12-14T09:10:50.635Z,55.90
2017-12-14T09:13:18.247Z,56.00
2017-12-14T09:15:45.777Z,55.60
2017-12-14T09:18:13.561Z,55.60
2017-12-14T09:20:41.156Z,55.20
2017-12-14T09:23:08.728Z,55.30
2017-12-14T09:25:36.277Z,55.60
2017-12-14T09:28:04.417Z,55.60
2017-12-14T09:30:31.987Z,55.50
2017-12-14T09:32:59.624Z,55.20
2017-12-14T09:35:27.190Z,55.00
2017-12-14T09:37:54.756Z,56.10
2017-12-14T09:40:22.371Z,56.40
2017-12-14T09:42:50.752Z,56.80
2017-12-14T09:45:18.313Z,56.70
2017-12-14T09:47:46.037Z,56.90
2017-12-14T09:50:14.388Z,54.60
2017-12-14T09:52:42.006Z,54.50
2017-12-14T09:55:09.570Z,53.10
2017-12-14T09:57:38.133Z,52.30
2017-12-14T10:00:05.850Z,52.30
2017-12-14T10:02:34.192Z,51.90
2017-12-14T10:05:01.779Z,51.80
2017-12-14T10:07:31.062Z,50.80
2017-12-14T10:09:59.214Z,50.70
2017-12-14T10:12:26.788Z,51.20
2017-12-14T10:14:54.379Z,50.60
2017-12-14T10:17:22.000Z,49.90
2017-12-14T10:19:49.650Z,49.80
2017-12-14T10:22:17.265Z,49.40
2017-12-14T10:24:45.327Z,49.20
2017-12-14T10:27:13.019Z,48.80
2017-12-14T10:29:40.621Z,48.80
2017-12-14T10:32:08.296Z,48.60
2017-12-14T10:34:36.605Z,48.30
2017-12-14T10:37:04.914Z,47.10
2017-12-14T10:39:32.595Z,46.10
2017-12-14T10:42:00.214Z,45.60
2017-12-14T10:44:27.830Z,45.60
2017-12-14T10:46:55.831Z,45.80
2017-12-14T10:49:23.510Z,45.50
2017-12-14T10:51:51.081Z,45.50
2017-12-14T10:54:18.727Z,45.50
2017-12-14T10:56:46.289Z,45.70
2017-12-14T10:59:13.873Z,45.70
2017-12-14T11:01:42.074Z,45.20
2017-12-14T11:04:09.726Z,45.40
2017-12-14T11:06:37.631Z,44.30
2017-12-14T11:09:06.893Z,44.40
2017-12-14T11:11:35.000Z,44.20
2017-12-14T11:14:03.999Z,44.50
2017-12-14T11:16:31.631Z,44.50
2017-12-14T11:18:59.244Z,44.70
2017-12-14T11:21:26.843Z,45.40
2017-12-14T11:23:54.458Z,45.80
2017-12-14T11:26:22.035Z,45.80
2017-12-14T11:28:49.650Z,45.60
2017-12-14T11:31:17.270Z,45.80
2017-12-14T11:33:45.161Z,45.60
2017-12-14T11:36:12.810Z,45.80
2017-12-14T11:38:40.411Z,45.30
2017-12-14T11:41:08.260Z,45.40
2017-12-14T11:43:35.820Z,45.20
2017-12-14T11:46:03.380Z,44.40
2017-12-14T11:48:30.983Z,44.30
2017-12-14T11:50:58.583Z,43.60
2017-12-14T11:53:26.178Z,43.70
2017-12-14T11:55:54.489Z,42.70
2017-12-14T11:58:22.176Z,42.70
2017-12-14T12:00:49.768Z,41.60
2017-12-14T12:03:17.364Z,40.90
2017-12-14T12:05:44.954Z,41.10
2017-12-14T12:08:12.559Z,41.20
2017-12-14T12:10:41.408Z,41.10
2017-12-14T12:13:09.014Z,41.00
2017-12-14T12:15:37.408Z,41.30
2017-12-14T12:18:05.971Z,41.40
2017-12-14T12:20:34.350Z,41.00
2017-12-14T12:23:02.920Z,40.90
2017-12-14T12:25:31.317Z,40.90
2017-12-14T12:27:59.764Z,40.30
2017-12-14T12:30:27.377Z,40.20
2017-12-14T12:32:54.959Z,40.60
2017-12-14T12:35:22.592Z,40.60
2017-12-14T12:37:50.920Z,40.90
2017-12-14T12:40:18.522Z,40.90
2017-12-14T12:42:47.015Z,41.00
2017-12-14T12:45:15.552Z,40.90
2017-12-14T12:47:43.150Z,40.80
2017-12-14T12:50:11.504Z,41.20
2017-12-14T12:52:39.331Z,40.60
2017-12-14T12:55:06.912Z,40.60
2017-12-14T12:57:34.435Z,40.80
2017-12-14T13:00:02.043Z,40.80
2017-12-14T13:02:29.614Z,40.00
2017-12-14T13:04:57.195Z,40.40
2017-12-14T13:07:25.574Z,39.90
2017-12-14T13:09:54.835Z,40.00
2017-12-14T13:12:22.431Z,40.60
2017-12-14T13:14:50.074Z,39.90
2017-12-14T13:17:17.651Z,39.80
2017-12-14T13:19:45.965Z,39.00
2017-12-14T13:22:13.605Z,39.00
2017-12-14T13:24:41.515Z,39.00
2017-12-14T13:27:09.136Z,38.90
2017-12-14T13:29:37.512Z,38.80
2017-12-14T13:32:05.096Z,38.80
2017-12-14T13:34:32.655Z,38.80
2017-12-14T13:37:00.251Z,38.20
2017-12-14T13:39:27.887Z,38.40
2017-12-14T13:41:55.678Z,38.30
2017-12-14T13:44:23.278Z,38.30
2017-12-14T13:46:50.838Z,38.20
2017-12-14T13:49:18.433Z,38.10
2017-12-14T13:51:46.055Z,38.00
2017-12-14T13:54:14.372Z,38.40
2017-12-14T13:56:41.977Z,38.30
2017-12-14T13:59:10.359Z,38.40
2017-12-14T14:01:38.769Z,38.60
2017-12-14T14:04:06.432Z,38.50
2017-12-14T14:06:33.984Z,38.50
2017-12-14T14:09:01.548Z,38.50
2017-12-14T14:11:29.111Z,38.70
2017-12-14T14:13:56.891Z,38.70
2017-12-14T14:16:24.638Z,38.80
2017-12-14T14:18:52.179Z,39.00
2017-12-14T14:21:20.513Z,39.00
2017-12-14T14:23:48.046Z,39.00
2017-12-14T14:26:15.613Z,38.80
2017-12-14T14:28:43.146Z,39.20
2017-12-14T14:31:12.341Z,38.90
2017-12-14T14:33:40.708Z,38.70
2017-12-14T14:36:08.303Z,38.70
2017-12-14T14:38:36.604Z,38.80
2017-12-14T14:41:04.494Z,39.10
2017-12-14T14:43:32.097Z,39.30
2017-12-14T14:45:59.673Z,39.60
2017-12-14T14:48:27.264Z,39.50
2017-12-14T14:50:55.776Z,39.50
2017-12-14T14:53:24.087Z,40.00
2017-12-14T14:55:51.674Z,40.00
2017-12-14T14:58:19.239Z,40.20
2017-12-14T15:00:46.805Z,40.40
2017-12-14T15:03:14.389Z,40.50
2017-12-14T15:05:43.314Z,41.20
2017-12-14T15:08:10.883Z,40.70
2017-12-14T15:10:38.718Z,40.70
2017-12-14T15:13:06.284Z,41.10
2017-12-14T15:15:33.875Z,41.30
2017-12-14T15:18:01.456Z,41.40
2017-12-14T15:20:29.025Z,41.50
2017-12-14T15:22:56.639Z,41.70
2017-12-14T15:25:24.242Z,41.70
2017-12-14T15:27:51.793Z,41.70
2017-12-14T15:30:19.336Z,41.80
2017-12-14T15:32:46.904Z,41.90
2017-12-14T15:35:14.929Z,42.00
2017-12-14T15:37:42.638Z,42.00
2017-12-14T15:40:10.203Z,42.20
2017-12-14T15:42:37.758Z,42.20
2017-12-14T15:45:05.541Z,42.10
2017-12-14T15:47:33.055Z,42.00
2017-12-14T15:50:00.601Z,42.10
2017-12-14T15:52:28.917Z,42.00
2017-12-14T15:54:56.849Z,42.00
2017-12-14T15:57:25.177Z,42.20
2017-12-14T15:59:52.729Z,42.20
2017-12-14T16:02:20.273Z,42.20
2017-12-14T16:04:47.842Z,42.00
2017-12-14T16:07:15.437Z,42.10
2017-12-14T16:09:43.740Z,42.20
2017-12-14T16:12:12.026Z,42.10
2017-12-14T16:14:40.352Z,42.00
2017-12-14T16:17:08.297Z,42.20
2017-12-14T16:19:36.299Z,42.10
2017-12-14T16:22:03.847Z,42.10
2017-12-14T16:24:31.422Z,42.30
2017-12-14T16:26:58.919Z,42.40
2017-12-14T16:29:27.222Z,42.70
2017-12-14T16:31:54.836Z,42.70
2017-12-14T16:34:23.211Z,42.70
2017-12-14T16:36:50.727Z,42.70
2017-12-14T16:39:18.380Z,42.90
2017-12-14T16:41:45.904Z,42.90
2017-12-14T16:44:13.508Z,42.80
2017-12-14T16:46:41.471Z,42.80
2017-12-14T16:49:09.132Z,42.90
2017-12-14T16:51:36.747Z,42.90
2017-12-14T16:54:04.380Z,42.90
2017-12-14T16:56:32.640Z,43.00
2017-12-14T16:59:01.071Z,43.00
2017-12-14T17:01:31.131Z,42.80
2017-12-14T17:03:58.692Z,43.00
2017-12-14T17:06:26.264Z,42.90
2017-12-14T17:08:53.819Z,43.00
2017-12-14T17:11:21.391Z,43.10
2017-12-14T17:13:48.997Z,43.30
2017-12-14T17:16:17.446Z,43.30
2017-12-14T17:18:45.611Z,43.20
2017-12-14T17:21:13.183Z,43.60
2017-12-14T17:23:40.927Z,43.20
2017-12-14T17:26:08.476Z,43.20
2017-12-14T17:28:36.021Z,43.20
2017-12-14T17:31:04.156Z,43.40
2017-12-14T17:33:31.713Z,43.20
2017-12-14T17:35:59.278Z,43.40
2017-12-14T17:38:27.018Z,43.20
2017-12-14T17:40:54.549Z,43.30
2017-12-14T17:43:22.096Z,43.50
2017-12-14T17:45:49.983Z,43.50
2017-12-14T17:48:20.690Z,43.20
2017-12-14T17:50:48.363Z,43.10
2017-12-14T17:53:15.945Z,43.10
2017-12-14T17:55:43.471Z,43.20
2017-12-14T17:58:10.992Z,43.40
2017-12-14T18:00:39.077Z,43.10
2017-12-14T18:03:07.412Z,43.20
2017-12-14T18:05:34.980Z,43.20
2017-12-14T18:08:02.542Z,43.30
2017-12-14T18:10:30.084Z,43.00
2017-12-14T18:12:57.682Z,43.70
2017-12-14T18:15:25.747Z,43.10
2017-12-14T18:17:53.476Z,42.90
2017-12-14T18:20:21.037Z,43.00
2017-12-14T18:22:48.621Z,43.30
2017-12-14T18:25:16.162Z,43.40
2017-12-14T18:27:43.748Z,43.50
2017-12-14T18:30:11.328Z,43.40
2017-12-14T18:32:39.758Z,43.00
2017-12-14T18:35:07.427Z,43.00
2017-12-14T18:37:35.021Z,43.10
2017-12-14T18:40:02.954Z,43.40
2017-12-14T18:42:30.691Z,43.60
2017-12-14T18:44:58.291Z,43.40
2017-12-14T18:47:25.896Z,43.40
2017-12-14T18:49:54.235Z,43.90
2017-12-14T18:52:21.925Z,43.90
2017-12-14T18:54:49.486Z,44.60
2017-12-14T18:57:17.079Z,44.80
2017-12-14T18:59:44.771Z,45.10
2017-12-14T19:02:12.376Z,45.30
2017-12-14T19:04:40.289Z,45.60
2017-12-14T19:07:08.698Z,46.10
2017-12-14T19:09:36.289Z,46.30
2017-12-14T19:12:04.843Z,47.10
2017-12-14T19:14:32.482Z,47.00
2017-12-14T19:17:00.073Z,47.40
2017-12-14T19:19:27.672Z,47.60
2017-12-14T19:21:55.341Z,47.70
2017-12-14T19:24:23.307Z,47.80
2017-12-14T19:29:24.673Z,48.00
2017-12-14T19:31:52.453Z,48.20
2017-12-14T19:34:20.016Z,48.20
2017-12-14T19:36:47.606Z,48.20
2017-12-14T19:39:15.240Z,48.20
2017-12-14T19:41:42.799Z,48.40
2017-12-14T19:44:11.016Z,48.50
2017-12-14T19:46:38.635Z,48.80
2017-12-14T19:49:06.200Z,48.90
2017-12-14T19:51:36.440Z,49.20
2017-12-14T19:54:03.990Z,49.40
2017-12-14T19:56:31.527Z,49.50
2017-12-14T19:58:59.134Z,49.60
2017-12-14T20:01:26.755Z,49.60
2017-12-14T20:03:54.334Z,49.70
2017-12-14T20:06:21.968Z,49.70
2017-12-14T20:08:50.046Z,50.00
2017-12-14T20:11:18.064Z,50.20
2017-12-14T20:13:46.044Z,50.30
2017-12-14T20:16:14.342Z,50.50
2017-12-14T20:18:42.809Z,50.70
2017-12-14T20:21:11.231Z,50.80
2017-12-14T20:23:39.312Z,50.70
2017-12-14T20:26:07.735Z,51.70
2017-12-14T20:28:35.366Z,51.00
2017-12-14T20:31:03.872Z,51.10
2017-12-14T20:33:31.428Z,51.20
2017-12-14T20:35:59.063Z,51.30
2017-12-14T20:38:26.621Z,51.40
2017-12-14T20:40:54.234Z,51.40
2017-12-14T20:43:22.611Z,51.80
2017-12-14T20:45:51.228Z,52.00
2017-12-14T20:48:18.890Z,51.90
2017-12-14T20:50:46.458Z,52.00
2017-12-14T20:53:15.783Z,52.20
2017-12-14T20:55:44.322Z,52.30
2017-12-14T20:58:11.943Z,52.40
2017-12-14T21:00:39.594Z,52.60
2017-12-14T21:03:07.448Z,52.70
2017-12-14T21:05:35.018Z,52.90
2017-12-14T21:08:02.997Z,52.90
2017-12-14T21:10:30.630Z,53.00
2017-12-14T21:12:59.070Z,53.00
2017-12-14T21:15:27.718Z,53.20
2017-12-14T21:17:55.313Z,53.20
2017-12-14T21:20:24.137Z,53.40
2017-12-14T21:22:51.751Z,53.30
2017-12-14T21:25:20.144Z,53.70
2017-12-14T21:27:48.526Z,54.50
2017-12-14T21:30:17.565Z,53.80
2017-12-14T21:32:46.861Z,54.00
2017-12-14T21:35:14.450Z,53.90
2017-12-14T21:37:42.063Z,53.80
2017-12-14T21:40:09.589Z,53.80
2017-12-14T21:42:37.142Z,53.80
2017-12-14T21:45:05.633Z,54.10
2017-12-14T21:47:33.404Z,53.50
2017-12-14T21:50:00.959Z,53.50
2017-12-14T21:52:29.312Z,53.40
2017-12-14T21:54:56.942Z,53.40
2017-12-14T21:57:24.496Z,53.50
2017-12-14T21:59:52.167Z,53.40
2017-12-14T22:02:19.712Z,52.90
2017-12-14T22:04:47.287Z,52.60
2017-12-14T22:07:14.885Z,52.70
2017-12-14T22:09:42.487Z,52.90
2017-12-14T22:12:10.409Z,52.90
2017-12-14T22:14:38.505Z,52.90
2017-12-14T22:17:07.286Z,52.80
2017-12-14T22:19:35.973Z,52.50
2017-12-14T22:22:03.719Z,52.50
2017-12-14T22:24:31.415Z,52.50
2017-12-14T22:26:59.734Z,52.50
2017-12-14T22:42:22.366Z,52.50
2017-12-14T22:44:49.925Z,53.50
2017-12-14T22:47:17.568Z,53.70
2017-12-14T22:49:45.143Z,53.80
2017-12-14T22:52:12.747Z,53.70
2017-12-14T22:54:41.966Z,53.90
2017-12-14T22:57:10.411Z,54.00
2017-12-14T22:59:38.006Z,54.00
2017-12-14T23:02:05.604Z,54.10
2017-12-14T23:04:33.150Z,54.20
2017-12-14T23:07:00.757Z,54.30
2017-12-14T23:09:28.315Z,54.40
2017-12-14T23:11:55.984Z,54.50
2017-12-14T23:14:23.552Z,54.70
2017-12-14T23:16:51.166Z,55.00
2017-12-14T23:19:18.703Z,55.00
2017-12-14T23:21:46.303Z,55.00
2017-12-14T23:24:13.875Z,55.10
2017-12-14T23:26:41.627Z,55.20
2017-12-14T23:29:09.148Z,55.30
2017-12-14T23:31:36.692Z,55.40
2017-12-14T23:34:05.368Z,55.50
2017-12-14T23:36:33.690Z,55.60
2017-12-14T23:39:01.245Z,55.60
2017-12-14T23:41:28.923Z,55.70
2017-12-14T23:43:56.570Z,55.80
2017-12-14T23:46:24.175Z,55.80
2017-12-14T23:48:51.742Z,56.10
2017-12-14T23:51:19.406Z,56.10
2017-12-14T23:53:47.017Z,56.20
2017-12-14T23:56:14.616Z,56.40
2017-12-14T23:58:42.190Z,56.50
